Main page
METAR-TAF:

METAR-TAF

Airports :

Multan International Airport

Multan, Pakistan

latitude: 30-12-12N, longitude: 71-25-09E, elevation: 122 m

Current weather observation

The report was made 20 minutes ago, at 05:00 UTC
Wind 6 kt from the Southwest
Temperature 29°C
Humidity 45%
Pressure 1008 hPa
Visibility: 5000 m
haze

METAR: OPMT 200500Z 23006KT 5000 HZ NSC 29/16 Q1008 NOSIG

Time: 10:20 (05:20 UTC)

Forecast

The report was made 7 hours and 35 minutes ago, at 21:45 UTC
Forecast valid from 20 at 00 UTC to 20 at 18 UTC
Wind 5 kt from the Northeast
Visibility: 4000 m
Few clouds at a height of 12000 ft
smoke
From UTC
Wind 10 kt from the Southeast
Visibility: 5000 m
Scattered clouds at a height of 12000 ft
haze

TAF: OPMT 192145Z 2000/2018 05005KT 4000 FU FEW120 TN20/2001Z TX35/2010Z FM 200600 13010KT 5000 HZ SCT120

Weather observations and forecasts of more than 4000 airports (METAR and TAF reports).

The available stations are represented by yellow and red dots on the map.

Hover mouse over dot to see the name of the station.

Then click to see weather observations and forecasts.

To change the map : click on the green buttons with a black cross to zoom in, on the green button with a dash to zoom out, or on the green arrows for adjacent maps.


METAR-TAF: